Time;durP1;ratioP1;P1;durP2;ratioP2;P2;SDS_P1;SDS_P2;PMS_P1;PMS_P2;Temp;Humidity;BMP_temperature;BMP_pressure;BME280_temperature;BME280_humidity;BME280_pressure;Samples;Min_cycle;Max_cycle;Signal;HPM_P1;HPM_P2
2022/10/05 00:01:34;;;;;;;10.77;1.15;;;37.40;40.70;;;;;;5027142;28;20026;-65
2022/10/05 00:04:16;;;;;;;10.77;2.97;;;37.20;39.30;;;;;;5025795;28;21511;-66
2022/10/05 00:06:56;;;;;;;9.35;1.45;;;37.00;40.40;;;;;;5026043;28;20105;-65
2022/10/05 00:09:23;;;;;;;10.30;1.42;;;37.00;40.90;;;;;;5024263;28;20079;-64
2022/10/05 00:11:50;;;;;;;9.38;1.52;;;36.90;41.10;;;;;;5023329;28;20101;-64
2022/10/05 00:14:31;;;;;;;9.57;1.48;;;36.80;41.10;;;;;;5025207;28;20071;-63
2022/10/05 00:16:57;;;;;;;7.40;0.98;;;36.80;41.50;;;;;;5028095;28;20104;-64
2022/10/05 00:19:45;;;;;;;10.80;1.52;;;36.70;40.20;;;;;;5026030;28;20072;-67
2022/10/05 00:22:28;;;;;;;10.50;1.67;;;36.60;40.30;;;;;;5025475;28;20036;-65
2022/10/05 00:24:58;;;;;;;17.67;1.30;;;36.50;40.90;;;;;;5021262;28;20080;-64
2022/10/05 00:27:35;;;;;;;8.45;1.15;;;36.50;40.40;;;;;;5024876;28;20057;-64
2022/10/05 00:30:14;;;;;;;18.05;1.50;;;36.50;40.60;;;;;;5027555;28;20442;-67
2022/10/05 00:32:41;;;;;;;7.45;1.20;;;36.40;39.30;;;;;;5024161;28;20108;-66
2022/10/05 00:35:08;;;;;;;11.88;1.15;;;36.30;39.20;;;;;;5025490;28;20030;-63
2022/10/05 00:37:35;;;;;;;9.38;1.10;;;36.30;39.10;;;;;;5025356;28;20054;-63
2022/10/05 00:40:03;;;;;;;5.95;1.17;;;36.20;39.80;;;;;;5024907;28;20024;-66
2022/10/05 00:42:59;;;;;;;15.50;1.42;;;36.20;39.40;;;;;;5024213;28;20586;-67
2022/10/05 00:45:32;;;;;;;9.13;1.05;;;36.10;39.20;;;;;;5029641;28;20382;-64
2022/10/05 00:48:04;;;;;;;8.85;1.30;;;36.10;39.00;;;;;;5025077;28;20434;-64
2022/10/05 00:51:14;;;;;;;13.25;1.30;;;36.10;39.80;;;;;;5024549;28;20032;-64
2022/10/05 00:53:57;;;;;;;6.38;1.38;;;36.00;40.60;;;;;;5025122;28;20393;-65
2022/10/05 00:56:32;;;;;;;2.33;0.90;;;35.90;41.80;;;;;;5021904;28;20017;-66
2022/10/05 00:59:27;;;;;;;19.27;1.50;;;35.80;41.90;;;;;;5022519;28;20104;-65
2022/10/05 01:01:56;;;;;;;17.23;2.25;;;35.60;41.20;;;;;;5024040;28;20434;-62
2022/10/05 01:04:40;;;;;;;28.48;2.55;;;35.50;40.70;;;;;;5024141;28;20021;-63
2022/10/05 01:07:29;;;;;;;13.23;2.00;;;35.50;40.80;;;;;;5022674;28;20021;-65
2022/10/05 01:10:16;;;;;;;17.27;1.75;;;35.40;41.40;;;;;;5026157;28;20027;-63
2022/10/05 01:13:05;;;;;;;17.00;1.38;;;35.30;41.40;;;;;;5021650;28;20048;-68
2022/10/05 01:15:37;;;;;;;8.57;1.00;;;35.20;43.90;;;;;;5024312;28;20109;-66
2022/10/05 01:18:38;;;;;;;7.38;1.50;;;35.00;42.10;;;;;;5021679;28;20033;-65
2022/10/05 01:21:16;;;;;;;9.23;1.38;;;34.90;42.40;;;;;;4981055;28;20034;-64
2022/10/05 01:24:06;;;;;;;10.30;1.10;;;34.80;41.80;;;;;;4983204;28;20030;-64
2022/10/05 01:26:41;;;;;;;12.93;1.20;;;34.80;41.90;;;;;;4980510;28;20152;-66
2022/10/05 01:29:19;;;;;;;12.50;1.10;;;34.70;42.20;;;;;;4982389;28;20038;-64
2022/10/05 01:32:31;;;;;;;20.52;1.95;;;34.60;41.50;;;;;;4983713;28;20070;-66
2022/10/05 01:35:21;;;;;;;6.15;0.93;;;34.60;42.60;;;;;;4978267;28;20069;-61
2022/10/05 01:37:58;;;;;;;13.32;1.20;;;34.50;43.00;;;;;;4981744;28;20407;-64
2022/10/05 01:40:40;;;;;;;9.60;1.30;;;34.40;43.40;;;;;;4966075;28;20022;-64
2022/10/05 01:43:06;;;;;;;14.05;1.60;;;34.30;43.60;;;;;;4982607;28;20113;-62
2022/10/05 01:45:33;;;;;;;12.50;1.77;;;34.20;43.90;;;;;;4984806;28;20034;-68
2022/10/05 01:48:08;;;;;;;9.43;1.42;;;34.20;43.60;;;;;;4983869;28;20450;-63
2022/10/05 01:50:51;;;;;;;20.25;2.10;;;34.00;43.80;;;;;;4979558;28;20034;-68
2022/10/05 01:53:48;;;;;;;13.48;2.05;;;33.90;44.40;;;;;;4979607;28;20380;-64
2022/10/05 01:56:21;;;;;;;23.95;2.70;;;33.90;44.60;;;;;;4980451;28;20463;-64
2022/10/05 01:59:25;;;;;;;16.02;2.58;;;33.80;44.40;;;;;;5017051;28;20045;-65
2022/10/05 02:02:06;;;;;;;9.32;2.00;;;33.80;44.90;;;;;;5017636;28;20501;-65
2022/10/05 02:04:45;;;;;;;17.50;2.42;;;33.80;44.90;;;;;;5013227;28;20034;-65
2022/10/05 02:07:28;;;;;;;25.00;2.75;;;33.80;45.20;;;;;;5012862;28;20038;-64
2022/10/05 02:10:23;;;;;;;24.83;2.47;;;33.70;45.20;;;;;;5020212;28;20032;-63
2022/10/05 02:12:57;;;;;;;19.67;2.95;;;33.70;45.30;;;;;;5017586;28;20106;-64
2022/10/05 02:15:34;;;;;;;15.15;2.90;;;33.70;45.50;;;;;;5021846;28;20049;-66
2022/10/05 02:18:09;;;;;;;26.80;2.95;;;33.60;45.50;;;;;;5020650;28;20021;-64
2022/10/05 02:20:39;;;;;;;32.13;3.55;;;33.60;45.50;;;;;;5024599;28;20025;-65
2022/10/05 02:23:13;;;;;;;57.15;5.50;;;33.50;46.20;;;;;;5020657;28;20025;-63
2022/10/05 02:25:45;;;;;;;40.80;4.85;;;33.40;47.40;;;;;;5022237;28;20033;-63
2022/10/05 02:28:37;;;;;;;52.50;5.05;;;33.30;47.20;;;;;;5017978;28;20030;-65
2022/10/05 02:31:10;;;;;;;67.30;4.97;;;33.30;48.30;;;;;;5028804;28;20406;-64
2022/10/05 02:33:37;;;;;;;74.15;5.10;;;33.10;48.20;;;;;;5026900;28;20029;-65
2022/10/05 02:36:16;;;;;;;45.20;3.50;;;33.10;48.10;;;;;;5027086;28;20034;-66
2022/10/05 02:38:52;;;;;;;48.67;4.38;;;33.00;48.70;;;;;;5042314;28;20025;-63
2022/10/05 02:41:51;;;;;;;42.35;4.90;;;32.90;48.60;;;;;;5024074;28;20502;-67
2022/10/05 02:44:41;;;;;;;46.05;3.83;;;32.90;48.60;;;;;;5027350;28;20511;-66
2022/10/05 02:47:20;;;;;;;28.05;3.67;;;32.80;48.40;;;;;;5027504;28;20029;-63
2022/10/05 02:50:25;;;;;;;38.80;4.03;;;32.80;48.60;;;;;;5028125;28;20022;-66
2022/10/05 02:53:16;;;;;;;30.80;4.55;;;32.70;49.80;;;;;;5022450;28;20036;-64
2022/10/05 02:55:58;;;;;;;46.90;5.18;;;32.60;49.40;;;;;;5023797;28;20064;-65
2022/10/05 02:58:31;;;;;;;33.70;4.32;;;32.60;49.90;;;;;;5024309;28;20520;-65
2022/10/05 03:01:00;;;;;;;30.75;4.80;;;32.50;50.20;;;;;;5025939;28;20109;-65
2022/10/05 03:03:31;;;;;;;45.22;5.03;;;32.40;50.10;;;;;;5025581;28;20025;-65
2022/10/05 03:06:04;;;;;;;36.33;4.93;;;32.40;49.90;;;;;;5027210;28;20021;-65
2022/10/05 03:08:42;;;;;;;44.97;4.78;;;32.40;49.60;;;;;;5018632;28;20414;-64
2022/10/05 03:11:31;;;;;;;42.83;4.93;;;32.40;49.80;;;;;;5027616;28;20025;-64
2022/10/05 03:14:04;;;;;;;54.63;5.75;;;32.40;50.40;;;;;;5020209;28;20048;-65
2022/10/05 03:17:04;;;;;;;45.42;5.65;;;32.30;50.20;;;;;;5026093;28;20382;-65
2022/10/05 03:19:55;;;;;;;52.95;5.30;;;32.30;50.10;;;;;;5025906;28;20040;-65
2022/10/05 03:22:41;;;;;;;38.90;5.28;;;32.20;50.10;;;;;;5027387;28;20031;-65
2022/10/05 03:25:45;;;;;;;43.20;4.78;;;32.20;50.50;;;;;;5024711;28;20032;-65
2022/10/05 03:28:36;;;;;;;36.60;5.75;;;32.20;51.30;;;;;;5024674;28;20021;-64
2022/10/05 03:31:23;;;;;;;54.95;6.72;;;32.10;51.00;;;;;;5025903;28;20037;-66
2022/10/05 03:33:58;;;;;;;37.53;5.07;;;32.10;51.60;;;;;;5026375;28;20052;-66
2022/10/05 03:37:00;;;;;;;50.23;6.57;;;32.10;51.50;;;;;;5024123;28;20092;-66
2022/10/05 03:39:48;;;;;;;55.55;8.60;;;32.10;51.10;;;;;;5020828;28;20305;-66
2022/10/05 03:42:28;;;;;;;56.13;9.85;;;32.10;50.90;;;;;;5023136;28;20028;-66
2022/10/05 03:45:13;;;;;;;45.10;10.57;;;32.10;51.10;;;;;;5025189;28;20435;-64
2022/10/05 03:47:48;;;;;;;50.35;9.68;;;32.00;50.90;;;;;;5029988;28;20068;-64
2022/10/05 03:50:31;;;;;;;50.70;9.30;;;32.00;50.20;;;;;;5024990;28;20025;-66
2022/10/05 03:53:12;;;;;;;39.13;9.07;;;32.00;50.30;;;;;;5024890;28;20104;-64
2022/10/05 03:55:47;;;;;;;40.00;8.52;;;32.00;50.30;;;;;;5026289;28;20051;-66
2022/10/05 03:58:26;;;;;;;53.20;9.07;;;31.90;50.10;;;;;;5024951;28;20037;-66
2022/10/05 04:00:59;;;;;;;47.97;7.93;;;31.90;50.40;;;;;;5023452;28;20067;-63
2022/10/05 04:03:46;;;;;;;38.08;8.25;;;31.90;50.80;;;;;;5026633;28;20017;-63
2022/10/05 04:06:24;;;;;;;41.92;8.07;;;31.90;51.00;;;;;;5023375;28;20029;-63
2022/10/05 04:08:59;;;;;;;51.42;8.93;;;31.80;51.10;;;;;;5015014;28;20465;-64
2022/10/05 04:11:29;;;;;;;48.72;8.18;;;31.80;51.40;;;;;;5024574;28;20021;-65
2022/10/05 04:13:55;;;;;;;50.90;7.85;;;31.70;51.70;;;;;;5025053;28;20037;-64
2022/10/05 04:16:27;;;;;;;69.03;9.20;;;31.70;51.70;;;;;;5028745;28;20018;-64
2022/10/05 04:19:01;;;;;;;65.60;9.70;;;31.70;51.60;;;;;;5024801;28;20137;-65
2022/10/05 04:21:35;;;;;;;76.93;11.13;;;31.70;51.70;;;;;;5026213;28;20422;-64
2022/10/05 04:24:15;;;;;;;71.53;10.35;;;31.60;52.00;;;;;;5027834;28;20055;-66
2022/10/05 04:26:55;;;;;;;96.80;12.10;;;31.60;52.30;;;;;;5025576;28;20073;-65
2022/10/05 04:29:43;;;;;;;80.82;11.40;;;31.50;52.40;;;;;;5025866;28;20176;-64
2022/10/05 04:32:48;;;;;;;83.53;11.73;;;31.50;52.20;;;;;;5025870;28;20018;-65
2022/10/05 04:35:22;;;;;;;93.68;12.75;;;31.50;52.30;;;;;;4957896;28;20122;-64
2022/10/05 04:38:19;;;;;;;129.80;13.15;;;31.40;53.00;;;;;;4953803;28;20038;-67
2022/10/05 04:40:51;;;;;;;149.47;14.97;;;31.40;54.20;;;;;;4955772;28;20166;-66
2022/10/05 04:43:41;;;;;;;112.22;12.88;;;31.40;54.70;;;;;;4954399;28;20292;-68
2022/10/05 04:46:44;;;;;;;85.95;10.45;;;31.40;54.30;;;;;;4951972;28;20500;-68
2022/10/05 04:49:20;;;;;;;96.20;11.65;;;31.30;54.30;;;;;;4957515;28;20039;-67
2022/10/05 04:52:00;;;;;;;99.45;11.90;;;31.20;53.80;;;;;;4957306;28;20043;-65
2022/10/05 04:54:44;;;;;;;107.05;12.38;;;31.20;53.70;;;;;;4954739;28;20034;-68
2022/10/05 04:57:31;;;;;;;85.60;11.63;;;31.20;54.20;;;;;;4956162;28;20400;-64
2022/10/05 05:00:04;;;;;;;85.30;12.23;;;31.20;54.40;;;;;;4956086;28;20074;-66
2022/10/05 05:03:03;;;;;;;115.45;12.02;;;31.10;54.70;;;;;;4958427;28;20039;-69
2022/10/05 05:05:39;;;;;;;97.85;13.10;;;31.10;55.00;;;;;;4956701;28;20054;-68
2022/10/05 05:08:05;;;;;;;;;;;31.00;55.40;;;;;;4960452;28;20501;-70
2022/10/05 05:11:00;;;;;;;84.40;13.13;;;31.00;56.00;;;;;;5014865;28;19944;-66
2022/10/05 05:13:54;;;;;;;114.22;24.17;;;30.90;55.90;;;;;;5024478;28;20022;-70
2022/10/05 05:16:20;;;;;;;105.38;27.80;;;30.90;55.20;;;;;;4995593;28;20037;-65
2022/10/05 05:18:49;;;;;;;145.02;73.00;;;30.90;55.30;;;;;;5022781;28;20099;-68
2022/10/05 05:21:36;;;;;;;101.10;26.75;;;30.90;55.60;;;;;;5024559;28;20029;-69
2022/10/05 05:24:32;;;;;;;77.63;16.33;;;30.80;56.40;;;;;;5025518;28;20025;-69
2022/10/05 05:27:16;;;;;;;58.70;10.10;;;30.80;57.20;;;;;;5023127;28;20076;-65
2022/10/05 05:30:01;;;;;;;47.92;8.68;;;30.70;56.30;;;;;;5024654;28;20045;-67
2022/10/05 05:33:09;;;;;;;50.85;8.75;;;30.70;55.80;;;;;;5024449;28;20040;-68
2022/10/05 05:35:41;;;;;;;;;;;30.70;55.70;;;;;;4981706;28;20113;-67
2022/10/05 05:38:30;;;;;;;65.43;8.75;;;30.70;56.10;;;;;;4982674;28;20397;-64
2022/10/05 05:41:12;;;;;;;71.05;9.50;;;30.60;55.60;;;;;;4984650;28;20048;-65
2022/10/05 05:43:53;;;;;;;56.72;8.70;;;30.60;56.10;;;;;;4983295;28;20109;-67
2022/10/05 05:46:43;;;;;;;50.90;7.45;;;30.70;56.20;;;;;;4982357;28;20045;-65
2022/10/05 05:49:34;;;;;;;40.60;7.47;;;30.70;56.20;;;;;;4982638;28;20026;-69
2022/10/05 05:52:15;;;;;;;48.08;6.45;;;30.70;55.90;;;;;;4983220;28;20420;-65
2022/10/05 05:55:03;;;;;;;34.80;6.28;;;30.70;55.90;;;;;;4982161;28;20118;-66
2022/10/05 05:57:47;;;;;;;41.83;6.85;;;30.70;55.80;;;;;;4982263;28;20033;-65
2022/10/05 06:00:14;;;;;;;44.95;6.53;;;30.70;55.60;;;;;;4981776;28;20088;-65
2022/10/05 06:03:01;;;;;;;39.90;7.03;;;30.70;56.00;;;;;;4983620;28;20031;-65
2022/10/05 06:05:27;;;;;;;;;;;30.70;55.80;;;;;;4979452;28;20039;-66
2022/10/05 06:07:55;;;;;;;48.93;7.43;;;30.70;55.50;;;;;;4984608;28;20008;-67
2022/10/05 06:10:21;;;;;;;39.72;6.80;;;30.70;55.40;;;;;;4983299;28;20536;-65
2022/10/05 06:12:50;;;;;;;29.75;6.10;;;30.70;56.00;;;;;;5006098;28;20041;-68
2022/10/05 06:15:51;;;;;;;41.90;5.65;;;30.70;54.90;;;;;;5021337;28;20514;-68
2022/10/05 06:18:20;;;;;;;48.95;5.75;;;30.70;55.50;;;;;;5011043;28;20057;-67
2022/10/05 06:20:55;;;;;;;44.38;5.13;;;30.70;54.90;;;;;;5021481;28;20059;-66
2022/10/05 06:23:39;;;;;;;51.83;6.38;;;30.70;54.20;;;;;;5022967;28;20041;-66
2022/10/05 06:26:31;;;;;;;26.77;5.28;;;30.70;54.40;;;;;;5024283;28;20729;-65
2022/10/05 06:29:03;;;;;;;25.70;4.95;;;30.60;54.50;;;;;;5023167;28;20048;-65
2022/10/05 06:31:51;;;;;;;32.97;4.30;;;30.60;54.50;;;;;;5025107;28;20107;-67
2022/10/05 06:34:35;;;;;;;24.38;3.88;;;30.60;54.30;;;;;;5020979;28;20100;-66
2022/10/05 06:37:09;;;;;;;35.17;4.47;;;30.60;54.10;;;;;;5022598;28;20066;-66
2022/10/05 06:39:54;;;;;;;32.30;4.85;;;30.60;54.20;;;;;;5023011;28;20099;-65
2022/10/05 06:42:30;;;;;;;31.15;5.40;;;30.60;54.70;;;;;;5022737;28;20387;-66
2022/10/05 06:45:11;;;;;;;39.65;4.82;;;30.60;54.60;;;;;;5024970;28;20017;-67
2022/10/05 06:47:58;;;;;;;17.05;3.85;;;30.60;54.90;;;;;;5022342;28;20092;-65
2022/10/05 06:50:36;;;;;;;;;;;30.50;55.00;;;;;;5023352;28;20036;-65
2022/10/05 06:53:13;;;;;;;23.52;4.40;;;30.50;55.30;;;;;;5019562;28;20371;-66
2022/10/05 06:55:54;;;;;;;23.67;3.60;;;30.50;55.50;;;;;;5020103;28;20087;-69
2022/10/05 06:58:49;;;;;;;23.20;2.88;;;30.50;55.10;;;;;;5023401;28;20392;-65
2022/10/05 07:01:29;;;;;;;32.70;3.22;;;30.30;54.40;;;;;;5022089;28;20017;-67
2022/10/05 07:04:04;;;;;;;25.88;3.35;;;30.40;55.20;;;;;;5024001;28;20033;-64
2022/10/05 07:06:34;;;;;;;19.13;3.72;;;30.40;54.60;;;;;;5021267;28;20025;-67
2022/10/05 07:09:15;;;;;;;30.48;3.78;;;30.40;55.30;;;;;;5023882;28;20037;-67
2022/10/05 07:11:51;;;;;;;13.88;2.75;;;30.30;54.90;;;;;;5019558;28;20026;-69
2022/10/05 07:14:28;;;;;;;21.92;3.50;;;30.20;54.70;;;;;;5016928;28;20038;-66
2022/10/05 07:17:12;;;;;;;20.42;3.30;;;30.20;55.10;;;;;;5024481;28;20095;-67
2022/10/05 07:19:51;;;;;;;22.80;3.30;;;30.10;55.60;;;;;;5029785;28;20021;-68
2022/10/05 07:22:26;;;;;;;22.40;3.40;;;30.10;55.70;;;;;;5027104;28;20045;-66
2022/10/05 07:25:09;;;;;;;22.27;3.60;;;30.10;55.50;;;;;;5027021;28;20390;-66
2022/10/05 07:28:00;;;;;;;21.45;3.97;;;30.00;55.50;;;;;;5027487;28;20033;-68
2022/10/05 07:30:27;;;;;;;23.55;3.75;;;30.00;55.80;;;;;;5024042;28;20506;-65
2022/10/05 07:33:29;;;;;;;18.38;3.60;;;29.90;55.60;;;;;;5026982;28;20049;-65
2022/10/05 07:38:56;;;;;;;27.73;4.15;;;29.80;56.10;;;;;;4985765;28;20057;-68
2022/10/05 07:41:28;;;;;;;31.75;5.15;;;29.70;56.00;;;;;;4985163;28;20038;-66
2022/10/05 07:44:04;;;;;;;27.42;4.00;;;29.70;56.40;;;;;;4986189;28;20476;-69
2022/10/05 07:46:50;;;;;;;22.85;3.38;;;29.70;55.90;;;;;;4985796;28;20038;-66
2022/10/05 07:49:35;;;;;;;25.35;4.40;;;29.60;55.70;;;;;;4984165;28;20037;-65
2022/10/05 07:52:09;;;;;;;28.25;4.43;;;29.60;56.80;;;;;;4983005;28;20131;-65
2022/10/05 07:54:59;;;;;;;20.42;4.20;;;29.60;58.00;;;;;;4984975;28;20029;-66
2022/10/05 07:57:38;;;;;;;20.63;4.20;;;29.60;57.40;;;;;;4983831;28;20034;-68
2022/10/05 08:00:17;;;;;;;21.08;4.43;;;29.50;56.50;;;;;;4984124;28;20034;-65
2022/10/05 08:02:51;;;;;;;23.75;4.55;;;29.50;56.20;;;;;;4983559;28;20504;-66
2022/10/05 08:05:30;;;;;;;35.50;5.57;;;29.50;56.90;;;;;;4984412;28;20117;-71
2022/10/05 08:08:09;;;;;;;35.05;5.28;;;29.50;57.00;;;;;;4984424;28;20038;-68
2022/10/05 08:10:58;;;;;;;37.25;6.20;;;29.70;57.40;;;;;;4990698;28;20663;-69
2022/10/05 08:13:37;;;;;;;49.33;8.00;;;29.80;57.90;;;;;;5026264;28;20030;-72
2022/10/05 08:16:11;;;;;;;70.68;12.38;;;29.90;57.30;;;;;;5030343;28;20036;-69
2022/10/05 08:19:02;;;;;;;84.50;13.48;;;29.90;56.20;;;;;;5022569;28;20371;-68
2022/10/05 08:21:44;;;;;;;71.35;13.95;;;30.20;56.00;;;;;;5027025;28;20097;-68
2022/10/05 08:24:32;;;;;;;72.38;18.05;;;30.00;56.80;;;;;;5025775;28;20454;-71
2022/10/05 08:27:19;;;;;;;73.40;14.10;;;30.30;57.00;;;;;;5022757;28;20442;-69
2022/10/05 08:30:00;;;;;;;85.20;14.93;;;30.10;56.80;;;;;;5022945;28;20045;-69
2022/10/05 08:33:14;;;;;;;86.78;16.35;;;30.10;56.30;;;;;;5023492;28;20116;-67
2022/10/05 08:35:42;;;;;;;100.72;16.20;;;30.30;55.80;;;;;;4955113;28;20034;-69
2022/10/05 08:38:15;;;;;;;80.90;17.13;;;30.30;56.00;;;;;;4955643;28;20393;-68
2022/10/05 08:41:00;;;;;;;78.72;17.73;;;29.90;56.70;;;;;;4960649;28;20078;-68
2022/10/05 08:44:02;;;;;;;99.82;18.73;;;29.90;56.80;;;;;;4955596;28;20598;-68
2022/10/05 08:46:56;;;;;;;98.72;20.50;;;29.80;56.40;;;;;;4951984;28;20067;-69
2022/10/05 08:49:40;;;;;;;77.80;19.27;;;29.80;56.10;;;;;;4956764;28;20676;-69
2022/10/05 08:52:13;;;;;;;94.72;19.63;;;29.70;56.90;;;;;;4954446;28;20039;-70
2022/10/05 08:55:28;;;;;;;97.35;20.33;;;29.80;56.40;;;;;;4952300;28;20051;-68
2022/10/05 08:58:16;;;;;;;122.18;22.60;;;29.60;57.00;;;;;;4884113;29;20024;-67
2022/10/05 09:01:04;;;;;;;100.53;21.75;;;29.60;57.00;;;;;;4954996;28;20035;-68
2022/10/05 09:03:39;;;;;;;95.18;22.63;;;29.60;56.50;;;;;;4952911;28;20031;-69
2022/10/05 09:06:24;;;;;;;93.38;21.13;;;29.60;55.70;;;;;;4978229;28;20042;-68
2022/10/05 09:09:16;;;;;;;99.97;20.30;;;29.50;55.80;;;;;;5024522;28;20049;-69
2022/10/05 09:11:56;;;;;;;92.63;21.38;;;29.50;56.20;;;;;;5028184;28;20029;-68
2022/10/05 09:14:47;;;;;;;98.80;22.30;;;29.50;57.60;;;;;;5022303;28;20084;-68
2022/10/05 09:17:36;;;;;;;104.07;22.52;;;29.30;57.00;;;;;;5025559;28;20022;-70
2022/10/05 09:20:21;;;;;;;95.30;22.10;;;29.40;56.70;;;;;;5026277;28;20021;-69
2022/10/05 09:22:48;;;;;;;104.18;22.35;;;29.40;57.40;;;;;;5019516;28;20029;-70
2022/10/05 09:25:41;;;;;;;108.07;21.30;;;29.40;57.50;;;;;;5024721;28;20025;-69
2022/10/05 09:28:24;;;;;;;80.28;21.35;;;29.40;57.10;;;;;;5022168;28;20482;-69
2022/10/05 09:31:55;;;;;;;80.55;19.83;;;29.30;58.40;;;;;;5022268;28;20402;-68
2022/10/05 09:34:46;;;;;;;83.78;19.92;;;29.30;57.60;;;;;;4957265;28;20031;-68
2022/10/05 09:37:25;;;;;;;92.72;20.55;;;29.30;57.70;;;;;;4957392;28;20059;-70
2022/10/05 09:40:25;;;;;;;99.38;21.33;;;29.30;56.80;;;;;;4952874;28;20382;-70
2022/10/05 09:43:23;;;;;;;95.03;21.15;;;29.20;56.90;;;;;;4951705;28;20031;-69
2022/10/05 09:46:08;;;;;;;93.93;21.25;;;29.20;57.20;;;;;;4956648;28;20071;-69
2022/10/05 09:48:52;;;;;;;79.75;21.33;;;29.10;57.40;;;;;;4955438;28;20031;-70
2022/10/05 09:51:51;;;;;;;89.18;21.50;;;29.10;58.40;;;;;;4951499;28;20031;-70
2022/10/05 09:54:43;;;;;;;77.50;20.80;;;29.00;58.60;;;;;;4954925;28;20060;-69
2022/10/05 09:57:28;;;;;;;96.60;22.50;;;29.00;57.90;;;;;;4920062;29;20083;-69
2022/10/05 10:00:08;;;;;;;72.40;18.45;;;29.00;57.60;;;;;;4921676;29;20035;-71
2022/10/05 10:03:01;;;;;;;68.38;17.67;;;28.90;57.60;;;;;;4910312;29;20044;-70
2022/10/05 10:05:49;;;;;;;88.95;18.13;;;28.90;58.50;;;;;;4957552;28;20108;-68
2022/10/05 10:08:28;;;;;;;62.67;16.15;;;28.90;58.70;;;;;;4983254;28;20030;-69
2022/10/05 10:11:25;;;;;;;64.07;15.32;;;28.80;58.80;;;;;;4981012;28;20030;-68
2022/10/05 10:14:14;;;;;;;58.25;12.73;;;28.80;57.70;;;;;;4982112;28;20034;-68
2022/10/05 10:16:53;;;;;;;52.35;14.02;;;28.90;57.70;;;;;;4980587;28;20138;-69
2022/10/05 10:19:25;;;;;;;45.20;13.05;;;28.90;58.00;;;;;;4983084;28;20026;-69
2022/10/05 10:21:51;;;;;;;51.80;11.68;;;28.80;58.10;;;;;;4968927;28;20038;-68
2022/10/05 10:24:34;;;;;;;47.10;11.18;;;28.80;57.70;;;;;;4983750;28;20035;-68
2022/10/05 10:27:26;;;;;;;34.72;10.38;;;28.80;57.60;;;;;;4980687;28;20105;-70
2022/10/05 10:29:52;;;;;;;57.72;13.38;;;28.70;59.80;;;;;;4982059;28;20129;-70
2022/10/05 10:32:46;;;;;;;48.75;13.60;;;28.70;58.50;;;;;;4984477;28;20043;-68
2022/10/05 10:35:12;;;;;;;51.35;13.18;;;28.60;58.60;;;;;;5021891;28;20021;-69
2022/10/05 10:38:16;;;;;;;35.95;10.43;;;28.50;59.30;;;;;;5023486;28;20025;-70
2022/10/05 10:41:16;;;;;;;38.88;10.02;;;28.20;55.80;;;;;;5022827;28;20105;-71
2022/10/05 10:44:07;;;;;;;36.75;9.85;;;28.40;56.00;;;;;;5021197;28;20022;-69
2022/10/05 10:46:51;;;;;;;39.03;9.82;;;28.40;56.50;;;;;;5027743;28;20025;-68
2022/10/05 10:49:48;;;;;;;34.17;9.05;;;28.40;55.60;;;;;;5024871;28;20021;-69
2022/10/05 10:52:36;;;;;;;27.80;9.02;;;28.30;56.60;;;;;;5027857;28;20391;-69
2022/10/05 10:55:34;;;;;;;33.78;9.30;;;28.30;56.00;;;;;;5026779;28;20034;-70
2022/10/05 10:58:38;;;;;;;35.08;9.02;;;28.10;55.90;;;;;;5025213;28;20017;-69
2022/10/05 11:01:11;;;;;;;30.02;9.35;;;28.00;56.70;;;;;;5022363;28;20031;-70
2022/10/05 11:04:04;;;;;;;36.20;9.57;;;28.10;57.10;;;;;;5021719;28;20017;-69
2022/10/05 11:06:49;;;;;;;43.28;9.07;;;28.20;57.10;;;;;;5024028;28;20036;-70
2022/10/05 11:09:31;;;;;;;34.20;8.65;;;28.20;57.60;;;;;;5025786;28;20512;-69
2022/10/05 11:12:23;;;;;;;37.03;8.68;;;28.20;58.60;;;;;;5028176;28;20107;-68
2022/10/05 11:15:24;;;;;;;35.38;9.20;;;28.20;59.70;;;;;;5023901;28;20144;-69
2022/10/05 11:17:50;;;;;;;36.35;8.70;;;28.20;60.60;;;;;;5026240;28;20022;-70
2022/10/05 11:20:48;;;;;;;30.98;10.45;;;28.10;61.00;;;;;;5030774;28;20022;-68
2022/10/05 11:23:34;;;;;;;40.65;11.43;;;27.90;63.20;;;;;;5025784;28;20049;-67
2022/10/05 11:26:31;;;;;;;51.55;11.30;;;27.90;63.30;;;;;;4993454;28;20080;-69
2022/10/05 11:29:23;;;;;;;30.60;10.45;;;27.90;63.60;;;;;;5026911;28;20072;-69
2022/10/05 11:31:55;;;;;;;39.63;9.52;;;28.00;64.80;;;;;;5024755;28;20029;-68
2022/10/05 11:34:30;;;;;;;25.13;8.60;;;28.00;66.20;;;;;;5027973;28;20037;-69
2022/10/05 11:37:07;;;;;;;31.95;8.82;;;28.00;67.70;;;;;;5029109;28;20025;-70
2022/10/05 11:39:40;;;;;;;44.28;7.82;;;28.00;68.70;;;;;;5028752;28;20021;-70
2022/10/05 11:42:40;;;;;;;31.73;8.00;;;28.00;69.70;;;;;;5026827;28;20374;-68
2022/10/05 11:45:21;;;;;;;26.25;7.28;;;28.00;71.50;;;;;;5026107;28;20115;-68
2022/10/05 11:48:12;;;;;;;23.42;6.95;;;27.90;72.70;;;;;;5027666;28;20379;-68
2022/10/05 11:50:55;;;;;;;33.65;7.70;;;27.80;74.60;;;;;;5027214;28;20407;-70
2022/10/05 11:53:26;;;;;;;36.85;8.55;;;27.80;76.60;;;;;;5024565;28;20026;-69
2022/10/05 11:56:06;;;;;;;30.27;8.73;;;27.70;79.30;;;;;;5030044;28;20025;-69
2022/10/05 11:58:58;;;;;;;45.15;8.30;;;27.70;81.50;;;;;;5025465;28;20025;-70
2022/10/05 12:01:43;;;;;;;40.03;7.90;;;27.70;86.00;;;;;;5023496;28;20507;-68
2022/10/05 12:04:30;;;;;;;30.30;7.55;;;27.60;88.30;;;;;;5022577;28;20143;-69
2022/10/05 12:07:15;;;;;;;33.88;6.15;;;27.60;89.70;;;;;;5022356;28;20022;-70
2022/10/05 12:10:20;;;;;;;23.48;5.07;;;27.70;91.30;;;;;;5023055;28;20026;-70
2022/10/05 12:13:07;;;;;;;35.05;6.20;;;27.60;92.20;;;;;;5024293;28;20439;-69
2022/10/05 12:15:39;;;;;;;28.23;5.60;;;27.60;93.10;;;;;;5024921;28;20542;-68
2022/10/05 12:18:31;;;;;;;37.92;5.70;;;27.50;94.20;;;;;;5024810;28;20057;-69
2022/10/05 12:21:00;;;;;;;25.90;5.35;;;27.60;94.80;;;;;;5027886;28;20109;-68
2022/10/05 12:23:54;;;;;;;29.80;4.95;;;27.60;95.10;;;;;;5024642;28;20100;-69
2022/10/05 12:26:46;;;;;;;30.67;5.05;;;27.50;95.60;;;;;;5027322;28;20096;-69
2022/10/05 12:29:12;;;;;;;32.65;5.45;;;27.40;96.30;;;;;;5024803;28;20033;-68
2022/10/05 12:32:06;;;;;;;40.65;4.85;;;27.40;97.50;;;;;;5026021;28;20036;-69
2022/10/05 12:34:44;;;;;;;28.63;5.05;;;27.40;97.90;;;;;;5026385;28;20486;-69
2022/10/05 12:37:45;;;;;;;26.90;4.82;;;27.50;98.30;;;;;;5025478;28;20034;-68
2022/10/05 12:40:45;;;;;;;30.67;4.90;;;27.50;98.60;;;;;;5023792;28;20032;-70
2022/10/05 12:43:30;;;;;;;42.95;4.85;;;27.50;99.90;;;;;;5025873;28;20029;-68
2022/10/05 12:46:05;;;;;;;34.97;4.90;;;27.40;99.90;;;;;;5028459;28;20471;-69
2022/10/05 12:48:51;;;;;;;39.70;5.95;;;27.30;99.90;;;;;;5023022;28;20033;-69
2022/10/05 12:51:43;;;;;;;32.05;6.30;;;27.30;99.90;;;;;;5025748;28;20360;-69
2022/10/05 12:54:49;;;;;;;33.10;4.97;;;27.30;99.90;;;;;;5023955;28;20485;-68
2022/10/05 12:57:48;;;;;;;22.63;5.60;;;27.20;99.90;;;;;;5026070;28;20052;-67
2022/10/05 13:00:18;;;;;;;23.10;5.03;;;27.20;99.90;;;;;;5012142;28;20044;-69
2022/10/05 13:02:50;;;;;;;40.28;5.80;;;27.10;99.90;;;;;;5017616;28;20048;-68
2022/10/05 13:05:19;;;;;;;31.58;5.38;;;27.20;99.90;;;;;;5024456;28;20050;-69
2022/10/05 13:08:12;;;;;;;32.03;5.30;;;27.20;99.90;;;;;;5024038;28;20033;-67
2022/10/05 13:11:02;;;;;;;25.55;4.93;;;27.10;99.90;;;;;;5027170;28;20501;-68
2022/10/05 13:14:16;;;;;;;31.02;4.43;;;27.10;99.90;;;;;;5023517;28;20540;-68
2022/10/05 13:17:14;;;;;;;29.70;4.82;;;27.00;99.90;;;;;;4959761;28;20027;-69
2022/10/05 13:19:56;;;;;;;20.77;4.55;;;26.90;99.90;;;;;;4954887;28;20027;-68
2022/10/05 13:22:38;;;;;;;29.55;5.15;;;26.90;99.90;;;;;;4956651;28;20036;-70
2022/10/05 13:25:16;;;;;;;24.08;5.03;;;26.90;99.90;;;;;;4951383;28;20385;-68
2022/10/05 13:28:04;;;;;;;36.03;6.20;;;26.90;99.90;;;;;;4953735;28;20122;-69
2022/10/05 13:30:30;;;;;;;33.03;6.95;;;26.90;99.90;;;;;;4955315;28;20150;-69
2022/10/05 13:33:16;;;;;;;50.22;9.02;;;27.00;99.90;;;;;;4959688;28;20039;-70
2022/10/05 13:35:57;;;;;;;44.92;8.77;;;26.90;99.90;;;;;;4957380;28;20070;-68
2022/10/05 13:38:45;;;;;;;33.38;7.20;;;27.00;99.90;;;;;;4954616;28;20027;-69
2022/10/05 13:41:22;;;;;;;39.90;8.52;;;26.90;99.90;;;;;;4954173;28;20444;-67
2022/10/05 13:44:00;;;;;;;39.42;8.60;;;26.80;99.90;;;;;;4950897;28;20031;-69
2022/10/05 13:46:45;;;;;;;43.17;8.57;;;26.70;99.90;;;;;;4968046;28;20050;-69
2022/10/05 13:49:30;;;;;;;38.58;8.05;;;26.80;99.90;;;;;;5023951;28;20177;-69
2022/10/05 13:52:28;;;;;;;47.80;8.38;;;26.80;99.90;;;;;;5023955;28;20032;-70
2022/10/05 13:55:13;;;;;;;37.20;8.00;;;26.90;99.90;;;;;;5024525;28;20029;-69
2022/10/05 13:57:57;;;;;;;31.35;7.38;;;26.80;99.90;;;;;;5024569;28;20132;-68
2022/10/05 14:00:25;;;;;;;47.53;7.78;;;26.70;99.90;;;;;;5021535;28;20100;-69